Latest Coastal Weather Observations for Gove Airport

IDD60701

Issued at 10:41 am CST Monday 6 July 2015 (issued every 10 minutes, with the page automatically refreshed every 10 minutes)

About coastal observations | Map of coastal stations | Coastal observations for NT | Marine services | Other Formats
Station Details ID: 014508 Name: GOVE AIRPORT Lat: -12.27 Lon: 136.82 Height: 51.6 m
Data from the previous 72 hours. | See also: Recent months at Gove Airport
Date/Time
CST
Temp

°C
Wind Pressure Rain
since 9am
mm
Weather Cloud Vis
km
Sea
Height
m
Swell
Dir
 
Speed
knots
Gust
knots
hPa Trend Height
m
Period
s
Dir
06/10:30am 27.8 E 15 19 1014.8 - 0.0 - Mostly clear 10 - - - -
06/10:00am 27.0 ESE 16 20 1014.9 - 0.0 - Mostly clear 10 - - - -
06/09:30am 26.8 ESE 15 19 1014.9 - 0.0 - Mostly clear 10 - - - -
06/09:00am 26.5 ESE 12 16 1015.0 S 1.2 Fine Mostly clear 10 - - - -
06/08:30am 25.4 E 8 11 1015.0 - 1.2 - Mostly clear 10 - - - -
06/07:30am 21.8 ESE 4 5 1014.3 - 1.2 - Mostly clear 10 - - - -
06/07:00am 20.0 ESE 3 4 1014.1 - 1.2 - Mostly clear 10 - - - -
06/06:30am 20.3 SE 4 5 1013.9 - 1.2 - Mostly clear 10 - - - -
06/06:00am 20.7 SE 5 6 1013.3 F 1.2 Fine Clear 25 - - - -
06/05:30am 20.6 ESE 5 6 1013.5 - 1.2 - - 10 - - - -
06/05:00am 20.5 ESE 5 6 1013.6 - 1.2 - - 10 - - - -
06/04:30am 20.3 ESE 5 6 1013.4 - 1.2 - - 10 - - - -
06/04:00am 20.7 ESE 5 6 1013.3 - 1.2 - - 10 - - - -
06/03:30am 21.3 E 6 7 1013.3 - 1.2 - - 10 - - - -
06/03:00am 21.8 SSE 5 5 1013.2 - 1.2 - - 10 - - - -
06/02:30am 22.2 SE 5 7 1013.6 - 1.2 - Cloudy 10 - - - -
06/02:00am 22.6 SE 5 7 1013.8 - 1.2 - Cloudy 10 - - - -
06/01:30am 22.7 ENE 6 9 1014.0 - 1.2 - Partly cloudy 10 - - - -
06/01:00am 22.6 NE 5 6 1014.2 - 1.2 - Cloudy 10 - - - -
06/12:30am 22.4 S 5 7 1014.3 - 1.2 - Partly cloudy 10 - - - -
06/12:00am 22.0 SSW 4 5 1014.4 - 1.2 - Cloudy 10 - - - -
 
Date/Time
CST
Temp

°C
Wind Pressure Rain
since 9am
mm
Weather Cloud Vis
km
Sea
Height
m
Swell
Dir
 
Speed
knots
Gust
knots
hPa Trend Height
m
Period
s
Dir
05/11:30pm 22.2 S 4 5 1014.8 - 1.2 - Partly cloudy 10 - - - -
05/11:00pm 22.5 SSE 5 7 1014.9 - 1.2 - Partly cloudy 10 - - - -
05/10:30pm 22.5 S 6 7 1015.1 - 1.2 - Partly cloudy 10 - - - -
05/10:00pm 22.4 S 6 8 1015.1 - 1.2 - Partly cloudy 10 - - - -
05/09:30pm 22.3 S 4 6 1015.0 - 1.2 - Partly cloudy 10 - - - -
05/09:00pm 22.2 S 5 7 1014.6 - 1.2 - Cloudy 10 - - - -
05/08:30pm 22.3 S 5 7 1014.6 - 1.2 - Partly cloudy 10 - - - -
05/08:00pm 22.2 S 5 6 1014.4 - 1.2 - Partly cloudy 10 - - - -
05/07:30pm 22.2 S 4 6 1014.1 - 1.2 - Partly cloudy 10 - - - -
05/07:00pm 22.2 S 5 7 1013.8 - 1.2 - Cloudy 10 - - - -
05/06:30pm 22.2 S 5 7 1013.6 - 1.2 - Partly cloudy 10 - - - -
05/06:00pm 22.5 SSE 6 8 1013.1 - 1.2 - Cloudy 10 - - - -
05/05:30pm 22.9 S 5 6 1013.3 - 1.2 - Cloudy 10 - - - -
05/05:15pm 22.9 S 6 8 1013.2 - 1.2 - Partly cloudy 10 - - - -
05/05:00pm 23.1 SSE 6 9 1013.2 - 1.2 - Partly cloudy 10 - - - -
05/04:30pm 23.6 ESE 7 11 1013.3 - 1.2 - Partly cloudy 10 - - - -
05/04:19pm 23.1 ESE 7 10 1013.4 - 1.2 - Partly cloudy 10 - - - -
05/04:00pm 22.8 SE 7 11 1013.4 - 1.2 - Partly cloudy 10 - - - -
05/03:58pm 22.8 SSE 8 11 1013.4 - 1.2 - Partly cloudy 10 - - - -
05/03:47pm 22.8 SSE 8 11 1013.3 - 1.2 - Partly cloudy 10 - - - -
05/03:30pm 22.5 S 8 11 1013.3 - 1.2 - Partly cloudy 10 - - - -
05/03:00pm 22.8 S 7 11 1013.0 - 1.2 - Mostly cloudy 10 - - - -
05/02:30pm 22.9 SE 7 9 1013.5 - 1.2 - Partly cloudy 10 - - - -
05/02:27pm 22.7 SE 7 9 1013.5 - 1.2 - Partly cloudy 10 - - - -
05/02:00pm 22.8 ESE 9 13 1013.9 - 0.8 - Partly cloudy 3 - - - -
05/01:30pm 23.4 ESE 9 12 1014.2 - 0.2 - Partly cloudy 5 - - - -
05/01:29pm 23.6 ESE 8 12 1014.2 - 0.2 - Partly cloudy 6 - - - -
05/01:00pm 24.3 SSE 11 15 1014.2 - 0.2 - Partly cloudy 10 - - - -
05/12:30pm 25.4 ESE 9 13 1014.6 - 0.2 - Partly cloudy 10 - - - -
05/12:00pm 25.8 ESE 9 12 1014.7 - 0.0 - Cloudy 10 - - - -
05/11:30am 25.6 ESE 9 11 1015.2 - 0.0 - Partly cloudy 10 - - - -
05/11:00am 24.9 ESE 9 12 1015.5 - 0.0 - Partly cloudy 10 - - - -
05/10:30am 25.1 E 8 11 1015.8 - 0.0 - Partly cloudy 10 - - - -
05/10:00am 25.0 E 9 12 1015.8 - 0.0 - Cloudy 10 - - - -
05/09:30am 24.4 E 9 11 1015.8 - 0.0 - Cloudy 10 - - - -
05/09:00am 24.2 E 7 9 1015.4 - 0.0 - Mostly cloudy 10 - - - -
05/08:30am 23.8 E 7 9 1015.5 - 0.0 - Partly cloudy 10 - - - -
05/08:00am 23.3 E 6 9 1015.1 - 0.0 - Cloudy 10 - - - -
05/07:30am 22.9 E 9 13 1014.9 - 0.0 - Partly cloudy 10 - - - -
05/07:00am 21.5 SE 5 6 1014.5 - 0.0 - Partly cloudy 10 - - - -
05/06:30am 20.9 ENE 3 4 1014.2 - 0.0 - Cloudy 10 - - - -
05/06:00am 20.6 SE 4 4 1013.6 - 0.0 - Cloudy 10 - - - -
05/05:30am 20.0 NE 4 4 1013.8 - 0.0 - Cloudy 10 - - - -
05/05:00am 20.2 NNE 4 5 1013.8 - 0.0 - Cloudy 10 - - - -
05/04:30am 20.3 SSE 6 7 1013.6 - 0.0 - Partly cloudy 10 - - - -
05/04:00am 19.0 E 4 4 1013.8 - 0.0 - - 10 - - - -
05/03:30am 19.5 NE 4 5 1013.8 - 0.0 - - 10 - - - -
05/03:00am 20.4 ESE 4 5 1013.4 - 0.0 - - 10 - - - -
05/02:30am 21.0 ENE 4 5 1013.9 - 0.0 - - 10 - - - -
05/02:00am 21.1 NE 4 5 1013.9 - 0.0 - - 10 - - - -
05/01:30am 21.6 SE 5 7 1014.0 - 0.0 - Partly cloudy 10 - - - -
05/01:00am 22.3 SE 6 8 1014.1 - 0.0 - Partly cloudy 10 - - - -
05/12:30am 22.3 SE 6 7 1014.1 - 0.0 - - 10 - - - -
05/12:00am 23.0 ESE 8 10 1013.9 - 0.0 - Mostly clear 10 - - - -
 
Date/Time
CST
Temp

°C
Wind Pressure Rain
since 9am
mm
Weather Cloud Vis
km
Sea
Height
m
Swell
Dir
 
Speed
knots
Gust
knots
hPa Trend Height
m
Period
s
Dir
04/11:30pm 23.3 ESE 9 12 1014.2 - 0.0 - Partly cloudy 10 - - - -
04/11:00pm 24.2 ESE 11 14 1014.1 - 0.0 - Partly cloudy 10 - - - -
04/10:30pm 24.3 ESE 11 15 1014.3 - 0.0 - Partly cloudy 10 - - - -
04/10:00pm 24.3 ESE 11 15 1014.4 - 0.0 - Partly cloudy 10 - - - -
04/09:30pm 23.8 ESE 9 12 1014.4 - 0.0 - Partly cloudy 10 - - - -
04/09:00pm 24.1 ESE 13 17 1014.2 - 0.0 - Cloudy 10 - - - -
04/08:30pm 23.7 ESE 11 16 1014.2 - 0.0 - Partly cloudy 10 - - - -
04/08:00pm 23.8 SE 5 8 1013.9 - 0.0 - Partly cloudy 10 - - - -
04/07:30pm 22.4 S 4 6 1013.7 - 0.0 - Partly cloudy 10 - - - -
04/07:00pm 22.4 S 6 8 1013.6 - 0.0 - Partly cloudy 10 - - - -
04/06:30pm 22.9 S 7 12 1013.2 - 0.0 - Partly cloudy 10 - - - -
04/06:00pm 23.5 SSE 8 16 1012.7 - 0.0 - Cloudy 10 - - - -
04/05:30pm 23.6 SSE 8 11 1012.6 - 0.0 - Partly cloudy 10 - - - -
04/05:00pm 23.4 SSE 9 13 1012.3 - 0.0 - Partly cloudy 10 - - - -
04/04:30pm 24.6 SSE 10 16 1012.1 - 0.0 - Partly cloudy 10 - - - -
04/04:00pm 24.7 SSE 11 15 1012.0 - 0.0 - Partly cloudy 10 - - - -
04/03:30pm 24.9 SSE 11 17 1012.0 - 0.0 - Partly cloudy 10 - - - -
04/03:00pm 25.5 SSE 11 16 1011.6 - 0.0 - Mostly cloudy 10 - - - -
04/02:30pm 25.5 SE 11 17 1012.1 - 0.0 - Partly cloudy 10 - - - -
04/02:00pm 26.2 SE 12 18 1012.4 - 0.0 - Partly cloudy 10 - - - -
04/01:30pm 26.9 SE 12 17 1012.8 - 0.0 - Partly cloudy 10 - - - -
04/01:00pm 27.0 SE 13 20 1013.2 - 0.0 - Partly cloudy 10 - - - -
04/12:30pm 27.0 SSE 11 15 1013.7 - 0.0 - Partly cloudy 10 - - - -
04/12:00pm 26.7 SSE 11 16 1013.8 - 0.0 - Partly cloudy 10 - - - -
04/11:30am 27.2 SSE 10 17 1014.5 - 0.0 - Partly cloudy 10 - - - -
04/11:00am 26.4 SSE 12 16 1015.0 - 0.0 - Partly cloudy 10 - - - -
04/10:30am 26.4 SE 13 15 1015.2 - 0.0 - - 10 - - - -
04/10:00am 26.1 SE 13 17 1015.3 - 0.0 - Partly cloudy 10 - - - -
04/09:30am 25.9 SE 11 15 1015.3 - 0.0 - - 10 - - - -
04/09:00am 25.2 SSE 10 16 1015.3 - 0.0 - - 10 - - - -
04/08:30am 24.7 SSE 7 11 1015.1 - 0.0 - - 10 - - - -
04/08:00am 23.5 S 8 11 1014.6 - 0.0 - - 10 - - - -
04/07:30am 22.5 S 6 8 1014.3 - 0.0 - - 10 - - - -
04/07:00am 21.6 SSE 6 7 1014.2 - 0.0 - - 10 - - - -
04/06:30am 21.7 S 6 8 1014.2 - 0.0 - - 10 - - - -
04/06:00am 22.1 SE 8 9 1014.0 - 0.0 - - 10 - - - -
04/05:30am 22.5 ESE 9 12 1014.3 - 0.0 - Partly cloudy 10 - - - -
04/05:00am 22.6 ESE 9 11 1014.5 - 0.0 - Partly cloudy 10 - - - -
04/04:30am 22.9 SE 9 11 1014.3 - 0.0 - Partly cloudy 10 - - - -
04/04:00am 23.1 SE 10 13 1014.2 - 0.0 - Cloudy 10 - - - -
04/03:30am 22.9 SE 8 10 1013.9 - 0.0 - Partly cloudy 10 - - - -
04/03:00am 22.2 SSE 5 8 1013.7 - 0.0 - Partly cloudy 10 - - - -
04/02:30am 22.8 SSE 8 11 1014.1 - 0.0 - Cloudy 10 - - - -
04/02:00am 23.3 SSE 10 15 1014.2 - 0.0 - Partly cloudy 10 - - - -
04/01:30am 23.4 SSE 11 15 1014.4 - 0.0 - Cloudy 10 - - - -
04/01:00am 23.4 SSE 10 14 1014.6 - 0.0 - Cloudy 10 - - - -
04/12:30am 23.3 SE 11 15 1014.7 - 0.0 - Partly cloudy 10 - - - -
04/12:00am 23.1 SE 11 14 1014.7 - 0.0 - - 10 - - - -
 
Date/Time
CST
Temp

°C
Wind Pressure Rain
since 9am
mm
Weather Cloud Vis
km
Sea
Height
m
Swell
Dir
 
Speed
knots
Gust
knots
hPa Trend Height
m
Period
s
Dir
03/11:30pm 23.0 SE 10 15 1015.2 - 0.0 - - 10 - - - -
03/11:00pm 23.0 SE 9 12 1015.2 - 0.0 - - 10 - - - -
03/10:30pm 23.0 SE 9 14 1015.3 - 0.0 - - 10 - - - -
03/10:00pm 23.3 SE 9 14 1015.4 - 0.0 - Partly cloudy 10 - - - -
03/09:30pm 23.4 SE 10 14 1015.4 - 0.0 - Partly cloudy 10 - - - -
03/09:00pm 23.2 SE 9 13 1015.0 - 0.0 - Partly cloudy 10 - - - -
03/08:30pm 23.3 SSE 8 11 1015.1 - 0.0 - Partly cloudy 10 - - - -
03/08:00pm 23.4 SE 8 13 1014.9 - 0.0 - Partly cloudy 10 - - - -
03/07:30pm 23.5 SSE 7 11 1014.6 - 0.0 - Partly cloudy 10 - - - -
03/07:00pm 23.6 SSE 8 14 1014.2 - 0.0 - Partly cloudy 10 - - - -
03/06:30pm 23.6 SSE 9 13 1013.9 - 0.0 - Partly cloudy 10 - - - -
03/06:00pm 24.0 SSE 10 16 1013.5 - 0.0 - Partly cloudy 10 - - - -
03/05:30pm 24.6 SSE 10 15 1013.6 - 0.0 - Partly cloudy 10 - - - -
03/05:00pm 25.0 SSE 12 17 1013.4 - 0.0 - Partly cloudy 10 - - - -
03/04:30pm 25.2 SE 13 18 1013.4 - 0.0 - Partly cloudy 10 - - - -
03/04:00pm 25.6 SE 14 21 1013.3 - 0.0 - Partly cloudy 10 - - - -
03/03:30pm 26.3 SSE 13 20 1013.4 - 0.0 - Partly cloudy 10 - - - -
03/03:00pm 26.9 SSE 12 23 1013.1 - 0.0 - Cloudy 10 - - - -
03/02:30pm 26.2 SE 14 17 1013.7 - 0.0 - Partly cloudy 10 - - - -
03/02:00pm 26.1 SE 16 22 1014.1 - 0.0 - Partly cloudy 10 - - - -
03/01:39pm 25.9 SE 15 26 1014.5 - 0.0 - Partly cloudy 10 - - - -
03/01:30pm 26.7 SSE 15 22 1014.6 - 0.0 - Partly cloudy 10 - - - -
03/01:00pm 26.3 SE 15 21 1014.9 - 0.0 - Partly cloudy 10 - - - -
03/12:30pm 26.3 SE 16 23 1015.2 - 0.0 - Partly cloudy 10 - - - -
03/12:06pm 26.1 SSE 15 25 1015.5 - 0.0 - Partly cloudy 10 - - - -
03/12:00pm 25.9 SSE 13 20 1015.4 - 0.0 - Cloudy 10 - - - -
03/11:30am 27.0 SE 17 25 1016.1 - 0.0 - Partly cloudy 10 - - - -
03/11:23am 27.0 SSE 15 25 1016.2 - 0.0 - Partly cloudy 10 - - - -
03/11:00am 26.7 SSE 15 23 1016.5 - 0.0 - Partly cloudy 10 - - - -

Other Formats:

Comma delimited format used in spreadsheet applications
http://www.bom.gov.au/fwo/IDD60701/IDD60701.94150.axf

JavaScript Object Notation format (JSON) in row-major order
http://www.bom.gov.au/fwo/IDD60701/IDD60701.94150.json